Aérodrome :
LOGIN :

S'inscrire | Disclaimer

   EN    FR    IT 

 










Légende :    VFR   VFR Marginal   IFR   IFR Intensif   IFR Très Intensif
Visi : 
Plafond : 
>= 8 km
>= 3000ft
5 à 8 km
1000 à 3000 ft
1500m à 5 km
500 à 1000 ft
800 à 1500m
200 à 500 ft
< 800m
< 200 ft
Symboles :   Orages  Brouillard  Fortes neiges  Fortes précipitations  Vent > 20 kt
SIGMETs :   Divers  Orages  Givrage  Turbulence  Onde Orograph.  Cendres Volcan.







- Altitude de l'aérodrome : 16 ft
- Code IATA : SDR


LEXJ - Santander Cantabria

DERNIER METAR :
  • 191330Z 31006KT 270V350 8000 SCT011 BKN028 20/17 Q1020

METARs EXPIRÉS :
  • 191300Z 30008KT 280V350 7000 SCT010 BKN028 19/18 Q1020
  • 191230Z 28008KT 6000 SCT012 BKN025 19/18 Q1020
  • 191200Z 29008KT 270V330 6000 BKN010 BKN020 19/18 Q1020
  • 191130Z 28008KT 6000 BKN010 BKN022 19/18 Q1020
  • 191100Z 29010KT 6000 BKN008 BKN026 18/18 Q1020

TAF AMD TAF LEXJ
Valide du 19 à 11h jusqu'au 20 à 09h UTC


191127Z 1911/2009 27005KT 9000 SCT010 BKN020 TX20/1914Z TN15/2006Z
TEMPO 1911/1914 BKN010
TEMPO 1911/1917 36010KT
PROB30
TEMPO 1922/2007 3000 BR BKN010
Pas de NOTAMs connus pour ce terrain.
3 SIGMETs publiés pour la FIR Madrid (LECM) :
 
Turbulence forte
LECM SIGMET 7 VALID 191300/191700 LEVA
LECM MADRID FIR/UIR SEV TURB OBS AT 1257Z WI N3551 W00648 - N3941 W00117 - N3757 W00151 - N3551 W00459 - N3551 W00648 FL200/340 MOV ENE WKN=
Orages noyés dans la masse
LECM SIGMET 6 VALID 191200/191500 LEVA
LECM MADRID FIR/UIR EMBD TS OBS AT 1153Z S OF LINE N3628 W00501 - N3638 W00326 TOP FL320 MOV ENE NC=
Annulation du SIGMET 18
LECM SIGMET 1 VALID 190150/192200 LEVA
LECM MADRID UIR CNL SIGMET 18 VALID 182039/192200=



MET'MAP, la Météo Aéronautique d'un coup d'oeil ! - Copyright ORBIFLY Décembre 2007 - Disclaimer

ORBIFLY MET'MAP TEAM :

Programmation & Développement : Alexandra Zaïnal
Conception & Développement : Baudouin d'Aumeries
Co-Programmation & Développement : Marc-Olivier Méhu
Soutien technique & logistique : Manuel Goepfert

Contact : metmap@orbifly.com




SOURCES & CREDITS :

   NOAA